createdAt,value
2022-08-26T00:00:03.759Z,22.85
2022-08-26T00:01:05.505Z,22.85
2022-08-26T00:02:07.910Z,22.84
2022-08-26T00:03:09.650Z,22.86
2022-08-26T00:04:11.864Z,22.85
2022-08-26T00:05:13.676Z,22.82
2022-08-26T00:06:15.288Z,22.84
2022-08-26T00:07:22.554Z,22.84
2022-08-26T00:08:24.442Z,22.85
2022-08-26T00:09:26.122Z,22.82
2022-08-26T00:10:27.808Z,22.85
2022-08-26T00:11:29.466Z,22.85
2022-08-26T00:12:37.324Z,22.85
2022-08-26T00:13:39.644Z,22.85
2022-08-26T00:14:49.736Z,22.89
2022-08-26T00:15:51.729Z,22.89
2022-08-26T00:16:53.399Z,22.89
2022-08-26T00:17:56.901Z,22.86
2022-08-26T00:18:58.645Z,22.91
2022-08-26T00:20:00.435Z,22.88
2022-08-26T00:21:06.208Z,22.85
2022-08-26T00:22:08.323Z,22.81
2022-08-26T00:23:09.938Z,22.79
2022-08-26T00:24:12.020Z,22.78
2022-08-26T00:25:14.030Z,22.76
2022-08-26T00:26:18.469Z,22.76
2022-08-26T00:27:20.129Z,22.71
2022-08-26T00:28:22.567Z,22.68
2022-08-26T00:29:25.591Z,22.69
2022-08-26T00:30:28.857Z,22.73
2022-08-26T00:31:32.607Z,22.73
2022-08-26T00:32:34.264Z,22.72
2022-08-26T00:33:36.252Z,22.71
2022-08-26T00:34:38.164Z,22.71
2022-08-26T00:35:39.781Z,22.69
2022-08-26T00:36:47.459Z,22.68
2022-08-26T00:37:51.415Z,22.67
2022-08-26T00:38:53.322Z,22.64
2022-08-26T00:39:55.010Z,22.61
2022-08-26T00:41:02.236Z,22.64
2022-08-26T00:42:04.063Z,22.64
2022-08-26T00:43:07.079Z,22.59
2022-08-26T00:44:11.331Z,22.57
2022-08-26T00:45:13.221Z,22.51
2022-08-26T00:46:28.881Z,22.48
2022-08-26T00:48:08.933Z,22.48
2022-08-26T00:49:18.161Z,22.47
2022-08-26T00:50:22.725Z,22.45
2022-08-26T00:51:29.739Z,22.44
2022-08-26T00:52:31.792Z,22.44
2022-08-26T00:53:36.026Z,22.47
2022-08-26T00:54:42.392Z,22.43
2022-08-26T00:55:44.843Z,22.40
2022-08-26T00:56:50.554Z,22.38
2022-08-26T00:57:53.042Z,22.34
2022-08-26T00:58:55.647Z,22.34
2022-08-26T00:59:58.927Z,22.37
2022-08-26T01:01:02.017Z,22.34
2022-08-26T01:02:03.971Z,22.30
2022-08-26T01:03:05.949Z,22.27
2022-08-26T01:04:14.357Z,22.28
2022-08-26T01:05:16.227Z,22.27
2022-08-26T01:06:17.908Z,22.22
2022-08-26T01:07:20.361Z,22.25
2022-08-26T01:08:24.424Z,22.22
2022-08-26T01:09:26.088Z,22.24
2022-08-26T01:10:29.074Z,22.24
2022-08-26T01:11:31.231Z,22.24
2022-08-26T01:12:34.302Z,22.21
2022-08-26T01:13:36.535Z,22.24
2022-08-26T01:14:38.174Z,22.20
2022-08-26T01:15:46.140Z,22.21
2022-08-26T01:16:48.090Z,22.20
2022-08-26T01:17:50.696Z,22.20
2022-08-26T01:18:55.439Z,22.18
2022-08-26T01:20:01.426Z,22.20
2022-08-26T01:21:27.290Z,22.21
2022-08-26T01:22:53.026Z,22.22
2022-08-26T01:23:57.438Z,22.22
2022-08-26T01:24:59.510Z,22.21
2022-08-26T01:26:05.420Z,22.20
2022-08-26T01:27:09.876Z,22.18
2022-08-26T01:28:15.135Z,22.20
2022-08-26T01:29:19.203Z,22.20
2022-08-26T01:30:22.168Z,22.20
2022-08-26T01:31:25.964Z,22.16
2022-08-26T01:32:28.405Z,22.13
2022-08-26T01:33:40.010Z,22.13
2022-08-26T01:34:44.242Z,22.13
2022-08-26T01:35:46.228Z,22.11
2022-08-26T01:36:51.665Z,22.08
2022-08-26T01:37:54.443Z,22.06
2022-08-26T01:38:56.260Z,22.10
2022-08-26T01:39:57.989Z,22.07
2022-08-26T01:41:00.720Z,22.07
2022-08-26T01:42:03.415Z,22.06
2022-08-26T01:43:07.370Z,22.03
2022-08-26T01:44:09.831Z,22.01
2022-08-26T01:45:14.831Z,22.04
2022-08-26T01:46:16.482Z,21.98
2022-08-26T01:47:18.307Z,22.00
2022-08-26T01:48:21.332Z,21.97
2022-08-26T01:49:23.312Z,21.96
2022-08-26T01:50:30.723Z,21.94
2022-08-26T01:51:32.568Z,21.97
2022-08-26T01:52:34.212Z,21.93
2022-08-26T01:53:36.819Z,21.89
2022-08-26T01:54:38.499Z,21.92
2022-08-26T01:55:43.148Z,21.90
2022-08-26T01:56:44.822Z,21.93
2022-08-26T01:57:47.895Z,21.87
2022-08-26T01:58:54.241Z,21.86
2022-08-26T01:59:57.329Z,21.90
2022-08-26T02:00:59.327Z,21.90
2022-08-26T02:02:01.265Z,21.89
2022-08-26T02:03:18.177Z,21.87
2022-08-26T02:04:24.828Z,21.87
2022-08-26T02:05:26.452Z,21.84
2022-08-26T02:06:28.256Z,21.89
2022-08-26T02:07:29.930Z,21.86
2022-08-26T02:08:42.275Z,21.86
2022-08-26T02:09:43.937Z,21.83
2022-08-26T02:10:45.774Z,21.80
2022-08-26T02:11:47.817Z,21.77
2022-08-26T02:12:50.245Z,21.82
2022-08-26T02:13:55.681Z,21.76
2022-08-26T02:14:58.629Z,21.73
2022-08-26T02:16:00.873Z,21.79
2022-08-26T02:17:03.649Z,21.77
2022-08-26T02:18:09.751Z,21.76
2022-08-26T02:19:20.971Z,21.72
2022-08-26T02:20:26.485Z,21.69
2022-08-26T02:21:29.144Z,21.65
2022-08-26T02:22:32.425Z,21.63
2022-08-26T02:23:34.175Z,21.65
2022-08-26T02:25:08.198Z,21.59
2022-08-26T02:26:16.507Z,21.59
2022-08-26T02:27:28.213Z,21.62
2022-08-26T02:28:39.189Z,21.59
2022-08-26T02:29:43.341Z,21.60
2022-08-26T02:30:45.092Z,21.57
2022-08-26T02:31:48.529Z,21.57
2022-08-26T02:32:51.570Z,21.56
2022-08-26T02:33:53.190Z,21.57
2022-08-26T02:34:54.818Z,21.55
2022-08-26T02:35:56.496Z,21.60
2022-08-26T02:37:03.000Z,21.60
2022-08-26T02:38:10.225Z,21.59
2022-08-26T02:39:15.054Z,21.60
2022-08-26T02:40:22.704Z,21.59
2022-08-26T02:41:24.409Z,21.63
2022-08-26T02:42:26.348Z,21.62
2022-08-26T02:43:32.691Z,21.59
2022-08-26T02:44:34.594Z,21.59
2022-08-26T02:45:36.437Z,21.55
2022-08-26T02:46:39.319Z,21.53
2022-08-26T02:47:41.468Z,21.53
2022-08-26T02:48:43.078Z,21.52
2022-08-26T02:49:44.851Z,21.53
2022-08-26T02:50:49.324Z,21.50
2022-08-26T02:51:51.435Z,21.56
2022-08-26T02:52:53.728Z,21.49
2022-08-26T02:53:55.352Z,21.49
2022-08-26T02:54:57.303Z,21.49
2022-08-26T02:55:59.018Z,21.49
2022-08-26T02:57:01.871Z,21.52
2022-08-26T02:58:05.071Z,21.50
2022-08-26T02:59:06.861Z,21.47
2022-08-26T03:00:09.330Z,21.46
2022-08-26T03:01:24.795Z,21.46
2022-08-26T03:02:27.547Z,21.46
2022-08-26T03:03:29.461Z,21.46
2022-08-26T03:04:33.497Z,21.43
2022-08-26T03:05:35.223Z,21.43
2022-08-26T03:06:37.251Z,21.42
2022-08-26T03:07:39.433Z,21.39
2022-08-26T03:08:41.220Z,21.39
2022-08-26T03:09:43.516Z,21.39
2022-08-26T03:10:46.535Z,21.42
2022-08-26T03:11:49.787Z,21.43
2022-08-26T03:12:52.255Z,21.43
2022-08-26T03:13:53.996Z,21.42
2022-08-26T03:14:56.296Z,21.45
2022-08-26T03:15:57.961Z,21.43
2022-08-26T03:17:00.424Z,21.43
2022-08-26T03:18:02.615Z,21.42
2022-08-26T03:19:05.992Z,21.45
2022-08-26T03:20:10.778Z,21.43
2022-08-26T03:21:16.985Z,21.39
2022-08-26T03:22:19.971Z,21.39
2022-08-26T03:23:22.201Z,21.36
2022-08-26T03:24:23.892Z,21.36
2022-08-26T03:25:26.995Z,21.31
2022-08-26T03:26:28.953Z,21.28
2022-08-26T03:27:31.207Z,21.32
2022-08-26T03:28:34.560Z,21.31
2022-08-26T03:29:55.596Z,21.33
2022-08-26T03:30:57.855Z,21.32
2022-08-26T03:32:01.690Z,21.35
2022-08-26T03:33:03.857Z,21.33
2022-08-26T03:34:05.751Z,21.35
2022-08-26T03:35:07.583Z,21.32
2022-08-26T03:36:09.206Z,21.31
2022-08-26T03:37:10.829Z,21.32
2022-08-26T03:38:12.964Z,21.25
2022-08-26T03:39:14.676Z,21.25
2022-08-26T03:40:16.418Z,21.25
2022-08-26T03:41:22.008Z,21.23
2022-08-26T03:42:23.776Z,21.26
2022-08-26T03:43:26.874Z,21.21
2022-08-26T03:44:28.936Z,21.25
2022-08-26T03:45:30.592Z,21.28
2022-08-26T03:46:35.691Z,21.25
2022-08-26T03:47:38.365Z,21.26
2022-08-26T03:48:40.035Z,21.23
2022-08-26T03:49:42.812Z,21.25
2022-08-26T03:50:44.468Z,21.26
2022-08-26T03:51:47.252Z,21.25
2022-08-26T03:52:49.427Z,21.22
2022-08-26T03:53:51.065Z,21.23
2022-08-26T03:54:52.745Z,21.26
2022-08-26T03:55:54.377Z,21.28
2022-08-26T03:56:55.992Z,21.25
2022-08-26T03:57:59.317Z,21.25
2022-08-26T03:59:01.158Z,21.26
2022-08-26T04:00:06.080Z,21.25
2022-08-26T04:01:07.878Z,21.26
2022-08-26T04:02:11.620Z,21.26
2022-08-26T04:03:33.565Z,21.21
2022-08-26T04:04:35.435Z,21.25
2022-08-26T04:05:37.077Z,21.25
2022-08-26T04:06:44.531Z,21.28
2022-08-26T04:07:46.748Z,21.26
2022-08-26T04:08:50.309Z,21.28
2022-08-26T04:09:58.272Z,21.26
2022-08-26T04:11:01.311Z,21.31
2022-08-26T04:12:03.995Z,21.28
2022-08-26T04:13:06.612Z,21.29
2022-08-26T04:14:10.406Z,21.25
2022-08-26T04:15:13.518Z,21.19
2022-08-26T04:16:16.739Z,21.15
2022-08-26T04:17:19.531Z,21.15
2022-08-26T04:18:32.645Z,21.12
2022-08-26T04:19:38.755Z,21.11
2022-08-26T04:20:40.378Z,21.08
2022-08-26T04:21:42.193Z,21.08
2022-08-26T04:22:45.200Z,21.06
2022-08-26T04:23:47.433Z,21.11
2022-08-26T04:24:49.701Z,21.11
2022-08-26T04:25:51.640Z,21.12
2022-08-26T04:26:53.959Z,21.16
2022-08-26T04:27:55.579Z,21.19
2022-08-26T04:28:57.185Z,21.19
2022-08-26T04:30:01.066Z,21.26
2022-08-26T04:31:02.820Z,21.31
2022-08-26T04:32:04.548Z,21.29
2022-08-26T04:33:12.933Z,21.33
2022-08-26T04:34:15.320Z,21.35
2022-08-26T04:35:17.392Z,21.38
2022-08-26T04:36:19.781Z,21.38
2022-08-26T04:37:21.928Z,21.41
2022-08-26T04:38:24.393Z,21.45
2022-08-26T04:39:27.787Z,21.47
2022-08-26T04:40:29.636Z,21.52
2022-08-26T04:41:31.722Z,21.56
2022-08-26T04:42:33.477Z,21.59
2022-08-26T04:43:37.360Z,21.62
2022-08-26T04:44:41.177Z,21.65
2022-08-26T04:45:43.734Z,21.70
2022-08-26T04:46:45.456Z,21.74
2022-08-26T04:47:47.341Z,21.79
2022-08-26T04:48:51.753Z,21.84
2022-08-26T04:49:57.473Z,21.87
2022-08-26T04:51:00.140Z,21.87
2022-08-26T04:52:01.808Z,21.93
2022-08-26T04:53:04.522Z,21.97
2022-08-26T04:54:08.728Z,22.00
2022-08-26T04:55:10.406Z,22.04
2022-08-26T04:56:12.934Z,22.08
2022-08-26T04:57:14.563Z,22.11
2022-08-26T04:58:17.840Z,22.17
2022-08-26T04:59:19.970Z,22.21
2022-08-26T05:00:23.422Z,22.25
2022-08-26T05:01:28.413Z,22.28
2022-08-26T05:02:31.637Z,22.33
2022-08-26T05:03:35.443Z,22.37
2022-08-26T05:04:37.717Z,22.38
2022-08-26T05:05:43.602Z,22.43
2022-08-26T05:06:45.268Z,22.48
2022-08-26T05:07:46.873Z,22.51
2022-08-26T05:08:51.565Z,22.52
2022-08-26T05:09:54.677Z,22.57
2022-08-26T05:10:56.510Z,22.61
2022-08-26T05:11:58.253Z,22.65
2022-08-26T05:13:00.329Z,22.64
2022-08-26T05:14:02.492Z,22.67
2022-08-26T05:15:04.580Z,22.67
2022-08-26T05:16:09.092Z,22.75
2022-08-26T05:17:15.171Z,22.76
2022-08-26T05:18:18.232Z,22.78
2022-08-26T05:19:21.673Z,22.75
2022-08-26T05:20:25.730Z,22.82
2022-08-26T05:21:29.950Z,22.91
2022-08-26T05:22:31.640Z,22.94
2022-08-26T05:23:35.372Z,22.99
2022-08-26T05:24:37.247Z,23.08
2022-08-26T05:25:41.947Z,23.10
2022-08-26T05:26:44.651Z,23.13
2022-08-26T05:27:47.018Z,23.18
2022-08-26T05:28:49.218Z,23.29
2022-08-26T05:29:54.678Z,23.49
2022-08-26T05:30:56.543Z,23.91
2022-08-26T05:31:58.320Z,24.35
2022-08-26T05:32:59.981Z,24.87
2022-08-26T05:34:03.633Z,25.34
2022-08-26T05:35:08.886Z,25.80
2022-08-26T05:36:16.124Z,26.08
2022-08-26T05:37:17.806Z,26.43
2022-08-26T05:38:20.640Z,26.72
2022-08-26T05:39:23.598Z,26.93
2022-08-26T05:40:25.393Z,27.23
2022-08-26T05:41:34.483Z,27.59
2022-08-26T05:42:38.303Z,27.77
2022-08-26T05:43:40.065Z,27.89
2022-08-26T05:44:54.121Z,28.26
2022-08-26T05:46:05.726Z,27.88
2022-08-26T05:47:07.615Z,27.92
2022-08-26T05:48:10.470Z,27.84
2022-08-26T05:49:13.416Z,27.85
2022-08-26T05:50:15.524Z,27.73
2022-08-26T05:51:17.666Z,27.59
2022-08-26T05:52:19.671Z,27.54
2022-08-26T05:53:21.816Z,27.38
2022-08-26T05:54:23.527Z,27.11
2022-08-26T05:55:25.479Z,27.15
2022-08-26T05:56:27.932Z,27.08
2022-08-26T05:57:30.003Z,27.06
2022-08-26T05:58:31.695Z,26.97
2022-08-26T05:59:33.406Z,27.00
2022-08-26T06:00:37.584Z,26.90
2022-08-26T06:01:39.769Z,27.03
2022-08-26T06:02:41.487Z,27.04
2022-08-26T06:03:44.955Z,27.07
2022-08-26T06:04:47.453Z,26.99
2022-08-26T06:05:49.176Z,26.93
2022-08-26T06:06:50.970Z,26.87
2022-08-26T06:08:11.164Z,26.75
2022-08-26T06:09:12.877Z,26.77
2022-08-26T06:10:31.438Z,26.61
2022-08-26T06:11:34.087Z,26.66
2022-08-26T06:12:36.052Z,26.61
2022-08-26T06:13:38.067Z,26.73
2022-08-26T06:14:40.515Z,26.66
2022-08-26T06:15:43.735Z,26.60
2022-08-26T06:16:46.036Z,26.63
2022-08-26T06:17:48.489Z,26.67
2022-08-26T06:18:51.035Z,26.64
2022-08-26T06:19:52.642Z,26.69
2022-08-26T06:20:58.027Z,26.64
2022-08-26T06:22:23.380Z,26.72
2022-08-26T06:23:44.579Z,26.87
2022-08-26T06:25:04.606Z,26.86
2022-08-26T06:26:07.660Z,26.77
2022-08-26T06:27:15.244Z,26.73
2022-08-26T06:28:17.572Z,26.66
2022-08-26T06:29:24.362Z,26.67
2022-08-26T06:30:26.390Z,26.75
2022-08-26T06:31:28.613Z,26.83
2022-08-26T06:32:30.987Z,26.83
2022-08-26T06:33:32.642Z,26.77
2022-08-26T06:34:34.516Z,26.80
2022-08-26T06:35:38.132Z,26.86
2022-08-26T06:36:41.057Z,26.84
2022-08-26T06:37:45.677Z,26.80
2022-08-26T06:38:48.354Z,26.67
2022-08-26T06:39:49.974Z,26.66
2022-08-26T06:40:53.361Z,26.61
2022-08-26T06:41:56.178Z,26.60
2022-08-26T06:42:58.338Z,26.53
2022-08-26T06:44:00.629Z,26.63
2022-08-26T06:45:02.323Z,26.70
2022-08-26T06:46:08.079Z,26.72
2022-08-26T06:47:10.805Z,26.76
2022-08-26T06:48:13.960Z,26.73
2022-08-26T06:49:15.943Z,26.79
2022-08-26T06:50:19.197Z,26.84
2022-08-26T06:51:23.572Z,26.89
2022-08-26T06:52:25.381Z,26.94
2022-08-26T06:53:27.580Z,27.03
2022-08-26T06:54:31.701Z,27.01
2022-08-26T06:55:34.288Z,27.01
2022-08-26T06:56:38.053Z,27.06
2022-08-26T06:57:41.147Z,27.12
2022-08-26T06:58:43.662Z,27.08
2022-08-26T06:59:45.369Z,27.14
2022-08-26T07:00:47.483Z,27.11
2022-08-26T07:01:49.730Z,27.17
2022-08-26T07:02:51.654Z,27.27
2022-08-26T07:03:55.197Z,27.31
2022-08-26T07:04:58.774Z,27.24
2022-08-26T07:06:04.026Z,27.28
2022-08-26T07:07:06.943Z,27.33
2022-08-26T07:08:11.341Z,27.37
2022-08-26T07:09:12.940Z,27.40
2022-08-26T07:10:15.853Z,27.30
2022-08-26T07:11:18.276Z,27.42
2022-08-26T07:12:21.869Z,27.48
2022-08-26T07:13:30.554Z,27.48
2022-08-26T07:14:34.149Z,27.54
2022-08-26T07:15:42.122Z,27.57
2022-08-26T07:16:43.878Z,27.50
2022-08-26T07:17:45.604Z,27.52
2022-08-26T07:18:48.592Z,27.52
2022-08-26T07:19:51.646Z,27.58
2022-08-26T07:20:54.285Z,27.66
2022-08-26T07:21:55.976Z,27.66
2022-08-26T07:22:59.003Z,27.77
2022-08-26T07:24:00.664Z,27.82
2022-08-26T07:25:07.515Z,27.81
2022-08-26T07:26:17.587Z,27.73
2022-08-26T07:27:19.326Z,27.73
2022-08-26T07:28:23.036Z,27.79
2022-08-26T07:29:25.134Z,27.86
2022-08-26T07:30:27.341Z,27.92
2022-08-26T07:31:33.571Z,27.96
2022-08-26T07:32:39.019Z,27.93
2022-08-26T07:33:41.014Z,27.98
2022-08-26T07:34:42.831Z,28.03
2022-08-26T07:35:45.358Z,28.12
2022-08-26T07:36:46.959Z,28.12
2022-08-26T07:37:55.079Z,28.13
2022-08-26T07:38:59.233Z,28.23
2022-08-26T07:40:00.988Z,28.23
2022-08-26T07:41:02.823Z,28.27
2022-08-26T07:42:07.439Z,28.32
2022-08-26T07:43:09.975Z,28.36
2022-08-26T07:44:12.299Z,28.35
2022-08-26T07:45:14.041Z,28.29
2022-08-26T07:46:27.195Z,28.36
2022-08-26T07:47:31.720Z,28.36
2022-08-26T07:48:33.510Z,28.36
2022-08-26T07:49:35.806Z,28.36
2022-08-26T07:50:50.068Z,28.44
2022-08-26T07:51:53.246Z,28.47
2022-08-26T07:52:56.156Z,28.47
2022-08-26T07:53:57.880Z,28.37
2022-08-26T07:55:00.624Z,28.24
2022-08-26T07:56:02.874Z,27.99
2022-08-26T07:57:05.218Z,28.03
2022-08-26T07:58:11.044Z,28.02
2022-08-26T07:59:13.957Z,28.14
2022-08-26T08:00:16.959Z,28.22
2022-08-26T08:01:19.861Z,28.29
2022-08-26T08:02:21.587Z,28.39
2022-08-26T08:03:23.260Z,28.40
2022-08-26T08:04:26.616Z,28.39
2022-08-26T08:05:33.741Z,28.46
2022-08-26T08:06:35.566Z,28.54
2022-08-26T08:07:44.249Z,28.50
2022-08-26T08:08:47.417Z,28.53
2022-08-26T08:09:51.267Z,28.64
2022-08-26T08:10:52.888Z,28.73
2022-08-26T08:11:54.990Z,28.75
2022-08-26T08:12:57.505Z,28.83
2022-08-26T08:14:01.138Z,28.93
2022-08-26T08:15:03.162Z,28.93
2022-08-26T08:16:05.539Z,28.93
2022-08-26T08:17:07.357Z,29.00
2022-08-26T08:18:15.225Z,29.00
2022-08-26T08:19:18.180Z,28.98
2022-08-26T08:20:20.011Z,29.05
2022-08-26T08:21:23.892Z,29.03
2022-08-26T08:22:25.986Z,29.08
2022-08-26T08:23:29.204Z,29.08
2022-08-26T08:24:33.389Z,29.11
2022-08-26T08:25:35.083Z,29.15
2022-08-26T08:26:36.711Z,29.18
2022-08-26T08:27:38.770Z,29.24
2022-08-26T08:28:40.858Z,29.28
2022-08-26T08:29:43.234Z,29.31
2022-08-26T08:30:44.946Z,29.32
2022-08-26T08:31:58.341Z,29.35
2022-08-26T08:33:00.398Z,29.36
2022-08-26T08:34:02.058Z,29.36
2022-08-26T08:35:11.151Z,29.34
2022-08-26T08:36:18.423Z,29.38
2022-08-26T08:37:23.062Z,29.41
2022-08-26T08:38:25.524Z,29.38
2022-08-26T08:39:28.011Z,29.35
2022-08-26T08:40:29.719Z,29.34
2022-08-26T08:42:00.240Z,29.31
2022-08-26T08:43:04.028Z,29.32
2022-08-26T08:44:10.060Z,29.34
2022-08-26T08:45:15.605Z,29.29
2022-08-26T08:46:20.273Z,29.25
2022-08-26T08:47:47.469Z,29.26
2022-08-26T08:48:52.694Z,29.35
2022-08-26T08:49:58.845Z,29.36
2022-08-26T08:51:23.487Z,29.28
2022-08-26T08:52:27.641Z,29.28
2022-08-26T08:53:39.494Z,29.32
2022-08-26T08:54:42.180Z,29.36
2022-08-26T08:56:04.141Z,29.38
2022-08-26T08:57:09.453Z,29.41
2022-08-26T08:58:16.165Z,29.44
2022-08-26T08:59:23.021Z,29.46
2022-08-26T09:00:30.583Z,29.46
2022-08-26T09:01:55.690Z,29.48
2022-08-26T09:03:00.038Z,29.51
2022-08-26T09:04:24.273Z,29.56
2022-08-26T09:05:40.241Z,29.58
2022-08-26T09:06:42.175Z,29.56
2022-08-26T09:08:01.439Z,29.52
2022-08-26T09:09:03.591Z,29.49
2022-08-26T09:10:34.147Z,29.56
2022-08-26T09:11:36.902Z,29.58
2022-08-26T09:12:38.568Z,29.62
2022-08-26T09:13:40.289Z,29.65
2022-08-26T09:14:45.113Z,29.67
2022-08-26T09:15:48.728Z,29.63
2022-08-26T09:17:09.262Z,29.66
2022-08-26T09:18:48.829Z,29.66
2022-08-26T09:19:55.908Z,29.63
2022-08-26T09:21:03.526Z,29.72
2022-08-26T09:22:09.428Z,29.79
2022-08-26T09:23:11.724Z,29.82
2022-08-26T09:24:13.852Z,29.86
2022-08-26T09:25:15.875Z,29.92
2022-08-26T09:26:21.432Z,29.95
2022-08-26T09:27:50.728Z,30.00
2022-08-26T09:29:00.605Z,30.03
2022-08-26T09:30:02.242Z,30.02
2022-08-26T09:31:14.386Z,29.99
2022-08-26T09:32:25.422Z,29.96
2022-08-26T09:33:28.818Z,29.93
2022-08-26T09:34:31.938Z,29.93
2022-08-26T09:35:38.686Z,29.97
2022-08-26T09:36:41.705Z,29.97
2022-08-26T09:38:52.581Z,30.03
2022-08-26T09:39:54.234Z,29.96
2022-08-26T09:41:06.731Z,29.97
2022-08-26T09:42:23.715Z,30.02
2022-08-26T09:43:25.758Z,29.99
2022-08-26T09:44:27.379Z,30.03
2022-08-26T09:45:29.070Z,30.05
2022-08-26T09:46:31.877Z,30.09
2022-08-26T09:48:01.483Z,30.09
2022-08-26T09:49:32.694Z,30.13
2022-08-26T09:50:52.778Z,30.17
2022-08-26T09:52:23.948Z,30.27
2022-08-26T09:53:34.469Z,30.14
2022-08-26T09:54:36.309Z,30.17
2022-08-26T09:55:39.797Z,30.19
2022-08-26T09:56:41.777Z,30.23
2022-08-26T09:57:54.174Z,30.28
2022-08-26T09:58:56.913Z,30.28
2022-08-26T10:00:01.059Z,30.33
2022-08-26T10:01:06.395Z,30.38
2022-08-26T10:02:47.543Z,30.44
2022-08-26T10:03:49.700Z,30.51
2022-08-26T10:04:52.178Z,30.56
2022-08-26T10:06:01.466Z,30.58
2022-08-26T10:07:05.216Z,30.58
2022-08-26T10:08:37.604Z,30.61
2022-08-26T10:09:40.037Z,30.58
2022-08-26T10:10:41.781Z,30.58
2022-08-26T10:11:54.462Z,30.60
2022-08-26T10:13:11.086Z,30.63
2022-08-26T10:14:21.722Z,30.67
2022-08-26T10:15:23.846Z,30.70
2022-08-26T10:16:29.631Z,30.71
2022-08-26T10:17:47.682Z,30.75
2022-08-26T10:18:59.922Z,30.77
2022-08-26T10:20:23.220Z,30.71
2022-08-26T10:22:06.101Z,30.78
2022-08-26T10:23:14.102Z,30.80
2022-08-26T10:24:18.298Z,30.80
2022-08-26T10:25:26.057Z,30.81
2022-08-26T10:26:34.009Z,30.81
2022-08-26T10:28:11.170Z,30.84
2022-08-26T10:29:13.046Z,30.89
2022-08-26T10:30:19.318Z,30.92
2022-08-26T10:31:40.938Z,30.95
2022-08-26T10:32:48.416Z,30.95
2022-08-26T10:33:50.823Z,30.91
2022-08-26T10:34:53.510Z,30.94
2022-08-26T10:35:58.547Z,30.95
2022-08-26T10:37:16.724Z,30.96
2022-08-26T10:38:22.145Z,31.01
2022-08-26T10:39:29.139Z,31.05
2022-08-26T10:40:31.237Z,31.05
2022-08-26T10:41:36.309Z,31.08
2022-08-26T10:43:00.624Z,31.11
2022-08-26T10:44:02.358Z,31.14
2022-08-26T10:45:11.920Z,31.16
2022-08-26T10:46:20.465Z,31.18
2022-08-26T10:47:26.401Z,31.25
2022-08-26T10:48:49.260Z,31.15
2022-08-26T10:49:57.515Z,31.11
2022-08-26T10:51:03.241Z,31.14
2022-08-26T10:52:53.268Z,31.15
2022-08-26T10:54:13.577Z,31.18
2022-08-26T10:55:23.346Z,31.22
2022-08-26T10:56:41.318Z,31.25
2022-08-26T10:57:49.503Z,31.28
2022-08-26T10:59:21.019Z,31.26
2022-08-26T11:00:51.501Z,31.21
2022-08-26T11:02:24.904Z,31.22
2022-08-26T11:03:55.680Z,31.23
2022-08-26T11:05:05.554Z,31.26
2022-08-26T11:06:21.509Z,31.29
2022-08-26T11:07:36.412Z,31.36
2022-08-26T11:08:47.656Z,31.42
2022-08-26T11:09:49.726Z,31.43
2022-08-26T11:10:58.833Z,31.49
2022-08-26T11:12:05.127Z,31.54
2022-08-26T11:13:12.278Z,31.56
2022-08-26T11:14:29.300Z,31.53
2022-08-26T11:15:32.358Z,31.49
2022-08-26T11:16:42.784Z,31.49
2022-08-26T11:17:45.266Z,31.40
2022-08-26T11:18:48.724Z,31.45
2022-08-26T11:20:01.493Z,31.45
2022-08-26T11:21:30.484Z,31.49
2022-08-26T11:22:33.692Z,31.53
2022-08-26T11:23:45.439Z,31.58
2022-08-26T11:24:54.956Z,31.58
2022-08-26T11:25:57.062Z,31.62
2022-08-26T11:26:59.131Z,31.63
2022-08-26T11:28:01.747Z,31.67
2022-08-26T11:29:03.461Z,31.67
2022-08-26T11:30:28.459Z,31.69
2022-08-26T11:31:30.659Z,31.72
2022-08-26T11:32:39.535Z,31.70
2022-08-26T11:33:44.206Z,31.73
2022-08-26T11:34:57.889Z,31.73
2022-08-26T11:35:59.980Z,31.76
2022-08-26T11:37:14.224Z,31.77
2022-08-26T11:38:26.459Z,31.77
2022-08-26T11:39:31.067Z,31.83
2022-08-26T11:40:38.632Z,31.87
2022-08-26T11:41:43.911Z,31.84
2022-08-26T11:42:49.158Z,31.86
2022-08-26T11:43:52.339Z,31.87
2022-08-26T11:44:54.103Z,31.90
2022-08-26T11:46:02.843Z,31.92
2022-08-26T11:47:04.849Z,31.94
2022-08-26T11:48:22.415Z,31.97
2022-08-26T11:49:27.052Z,31.97
2022-08-26T11:50:28.752Z,32.02
2022-08-26T11:51:32.907Z,32.02
2022-08-26T11:52:34.572Z,32.02
2022-08-26T11:53:38.059Z,32.07
2022-08-26T11:54:39.943Z,32.09
2022-08-26T11:55:42.920Z,32.13
2022-08-26T11:56:46.061Z,32.11
2022-08-26T11:57:49.898Z,32.17
2022-08-26T11:58:53.388Z,32.17
2022-08-26T11:59:55.099Z,32.16
2022-08-26T12:01:05.477Z,32.25
2022-08-26T12:02:14.789Z,32.28
2022-08-26T12:03:31.675Z,32.27
2022-08-26T12:04:34.575Z,32.27
2022-08-26T12:05:39.513Z,32.24
2022-08-26T12:06:48.103Z,32.21
2022-08-26T12:07:50.888Z,32.20
2022-08-26T12:08:56.691Z,32.14
2022-08-26T12:10:00.325Z,32.13
2022-08-26T12:11:09.229Z,32.13
2022-08-26T12:12:15.029Z,32.10
2022-08-26T12:13:26.278Z,32.09
2022-08-26T12:14:28.730Z,31.97
2022-08-26T12:15:31.286Z,31.97
2022-08-26T12:16:37.096Z,31.97
2022-08-26T12:17:39.992Z,31.94
2022-08-26T12:18:44.874Z,31.93
2022-08-26T12:19:46.708Z,31.94
2022-08-26T12:20:48.704Z,31.97
2022-08-26T12:21:50.779Z,32.00
2022-08-26T12:22:53.132Z,32.02
2022-08-26T12:23:56.833Z,32.03
2022-08-26T12:24:59.922Z,32.04
2022-08-26T12:26:06.020Z,32.07
2022-08-26T12:27:16.449Z,32.09
2022-08-26T12:28:18.348Z,32.09
2022-08-26T12:29:27.045Z,32.11
2022-08-26T12:30:29.075Z,32.13
2022-08-26T12:31:40.874Z,32.10
2022-08-26T12:32:57.218Z,32.11
2022-08-26T12:34:01.578Z,32.06
2022-08-26T12:36:08.523Z,32.11
2022-08-26T12:37:11.981Z,32.13
2022-08-26T12:38:13.835Z,32.13
2022-08-26T12:39:26.748Z,32.17
2022-08-26T12:40:31.080Z,32.17
2022-08-26T12:41:47.761Z,32.23
2022-08-26T12:42:50.117Z,32.23
2022-08-26T12:43:51.808Z,32.27
2022-08-26T12:45:01.438Z,32.27
2022-08-26T12:46:06.658Z,32.30
2022-08-26T12:47:42.174Z,32.31
2022-08-26T12:48:48.151Z,32.33
2022-08-26T12:49:50.035Z,32.37
2022-08-26T12:50:52.117Z,32.35
2022-08-26T12:51:53.836Z,32.34
2022-08-26T12:53:10.789Z,32.35
2022-08-26T12:54:16.088Z,32.34
2022-08-26T12:55:22.891Z,32.37
2022-08-26T12:56:24.480Z,32.33
2022-08-26T12:57:28.031Z,32.31
2022-08-26T12:58:31.790Z,32.33
2022-08-26T12:59:33.579Z,32.35
2022-08-26T13:00:38.137Z,32.41
2022-08-26T13:01:43.098Z,32.38
2022-08-26T13:02:44.937Z,32.41
2022-08-26T13:03:46.784Z,32.41
2022-08-26T13:04:48.453Z,32.40
2022-08-26T13:05:50.116Z,32.43
2022-08-26T13:07:13.273Z,32.43
2022-08-26T13:08:16.845Z,32.44
2022-08-26T13:09:18.519Z,32.41
2022-08-26T13:10:36.867Z,32.40
2022-08-26T13:11:41.279Z,32.37
2022-08-26T13:12:42.975Z,32.37
2022-08-26T13:13:45.711Z,32.35
2022-08-26T13:14:49.045Z,32.37
2022-08-26T13:15:50.765Z,32.37
2022-08-26T13:16:52.848Z,32.35
2022-08-26T13:17:54.531Z,32.30
2022-08-26T13:19:01.843Z,32.30
2022-08-26T13:20:04.565Z,32.28
2022-08-26T13:21:18.626Z,32.31
2022-08-26T13:22:24.277Z,32.35
2022-08-26T13:23:26.501Z,32.35
2022-08-26T13:24:32.576Z,32.40
2022-08-26T13:25:34.358Z,32.41
2022-08-26T13:26:36.100Z,32.40
2022-08-26T13:27:37.734Z,32.37
2022-08-26T13:28:39.416Z,32.34
2022-08-26T13:29:41.592Z,32.34
2022-08-26T13:30:46.083Z,32.35
2022-08-26T13:31:48.015Z,32.38
2022-08-26T13:32:49.989Z,32.43
2022-08-26T13:33:51.664Z,32.45
2022-08-26T13:34:54.143Z,32.41
2022-08-26T13:35:55.880Z,32.37
2022-08-26T13:36:58.414Z,32.38
2022-08-26T13:38:00.113Z,32.35
2022-08-26T13:39:01.880Z,32.35
2022-08-26T13:40:05.025Z,32.35
2022-08-26T13:41:06.829Z,32.33
2022-08-26T13:42:09.085Z,32.34
2022-08-26T13:43:11.119Z,32.35
2022-08-26T13:44:13.497Z,32.33
2022-08-26T13:45:15.226Z,32.28
2022-08-26T13:46:17.041Z,32.28
2022-08-26T13:47:20.729Z,32.27
2022-08-26T13:48:23.527Z,32.28
2022-08-26T13:49:25.358Z,32.27
2022-08-26T13:50:27.016Z,32.28
2022-08-26T13:51:28.878Z,32.25
2022-08-26T13:52:31.190Z,32.24
2022-08-26T13:53:32.937Z,32.28
2022-08-26T13:54:34.626Z,32.28
2022-08-26T13:55:36.322Z,32.30
2022-08-26T13:56:38.177Z,32.27
2022-08-26T13:57:39.873Z,32.27
2022-08-26T13:58:41.573Z,32.27
2022-08-26T13:59:44.061Z,32.30
2022-08-26T14:00:45.803Z,32.30
2022-08-26T14:01:48.817Z,32.25
2022-08-26T14:02:50.525Z,32.27
2022-08-26T14:03:52.548Z,32.24